<?xml version="1.0" encoding="UTF-8" standalone="no" ?>
<gpx xmlns="http://www.topografix.com/GPX/1/1" xmlns:xsi="http://www.w3.org/2001/XMLSchema-instance" xsi:schemaLocation="http://www.topografix.com/GPX/1/1 http://www.topografix.com/GPX/1/1/gpx.xsd" version="1.1" creator="VisuGPX - https://www.visugpx.com">
  <metadata>
    <name>Balade entre Sarrewerden et la chapelle de Kirchberg</name>
    <desc><![CDATA[Départ de la balade au parking de l'embarcadère du moulin de Sarrewerden, rue des Comtes de Nassau. Traverser les villages de Bischtroff puis Burbach. Arrivé à la chapelle du Kirchberg, profiter d’un magnifique panorama sur les villages en contre-bas, à l’ombre du tilleul âgé de 300 ans. Retraverser le village de Burbach. Passer au cimetière de Sarrewerden, tombes d’aviateurs canadiens morts en 1944. Avant d’arriver au parking visiter l’église Saint-Blaise du 16 ème siècle. En fin de balade, possibilité de prendre une boisson à Sarre-Union, à la fontaine aux Boucs sur la place de la République. Photos : https://photos.app.goo.gl/Ro7D8Peh1gWMBLrf9]]></desc>
  </metadata>
  <trk>
    <name><![CDATA[Balade entre Sarrewerden et la chapelle de Kirchberg on GPSies.com]]></name>
    <trkseg>
      <trkpt lat="48.92424" lon="7.08194">
        <ele>224</ele>
        <time>2010-01-01T00:00:00Z</time>
      </trkpt>
      <trkpt lat="48.92423" lon="7.08184">
        <ele>224</ele>
        <time>2010-01-01T00:00:02Z</time>
      </trkpt>
      <trkpt lat="48.92432" lon="7.08202">
        <ele>225</ele>
        <time>2010-01-01T00:00:08Z</time>
      </trkpt>
      <trkpt lat="48.92386" lon="7.08196">
        <ele>224</ele>
        <time>2010-01-01T00:00:27Z</time>
      </trkpt>
      <trkpt lat="48.92327" lon="7.08214">
        <ele>224</ele>
        <time>2010-01-01T00:00:51Z</time>
      </trkpt>
      <trkpt lat="48.92306" lon="7.08199">
        <ele>223</ele>
        <time>2010-01-01T00:01:00Z</time>
      </trkpt>
      <trkpt lat="48.9229" lon="7.08208">
        <ele>223</ele>
        <time>2010-01-01T00:01:07Z</time>
      </trkpt>
      <trkpt lat="48.92284" lon="7.08162">
        <ele>223</ele>
        <time>2010-01-01T00:01:19Z</time>
      </trkpt>
      <trkpt lat="48.92267" lon="7.08128">
        <ele>223</ele>
        <time>2010-01-01T00:01:30Z</time>
      </trkpt>
      <trkpt lat="48.92148" lon="7.08181">
        <ele>222</ele>
        <time>2010-01-01T00:02:20Z</time>
      </trkpt>
      <trkpt lat="48.9209" lon="7.08234">
        <ele>220</ele>
        <time>2010-01-01T00:02:47Z</time>
      </trkpt>
      <trkpt lat="48.9193" lon="7.08319">
        <ele>220</ele>
        <time>2010-01-01T00:03:55Z</time>
      </trkpt>
      <trkpt lat="48.91896" lon="7.0832">
        <ele>221</ele>
        <time>2010-01-01T00:04:09Z</time>
      </trkpt>
      <trkpt lat="48.9188" lon="7.08305">
        <ele>222</ele>
        <time>2010-01-01T00:04:16Z</time>
      </trkpt>
      <trkpt lat="48.91854" lon="7.08308">
        <ele>221</ele>
        <time>2010-01-01T00:04:26Z</time>
      </trkpt>
      <trkpt lat="48.91789" lon="7.08288">
        <ele>221</ele>
        <time>2010-01-01T00:04:53Z</time>
      </trkpt>
      <trkpt lat="48.91681" lon="7.08306">
        <ele>220</ele>
        <time>2010-01-01T00:05:37Z</time>
      </trkpt>
      <trkpt lat="48.91554" lon="7.08224">
        <ele>221</ele>
        <time>2010-01-01T00:06:32Z</time>
      </trkpt>
      <trkpt lat="48.91547" lon="7.08109">
        <ele>227</ele>
        <time>2010-01-01T00:07:02Z</time>
      </trkpt>
      <trkpt lat="48.91529" lon="7.0806">
        <ele>230</ele>
        <time>2010-01-01T00:07:17Z</time>
      </trkpt>
      <trkpt lat="48.91418" lon="7.08025">
        <ele>236</ele>
        <time>2010-01-01T00:08:02Z</time>
      </trkpt>
      <trkpt lat="48.91194" lon="7.07844">
        <ele>231</ele>
        <time>2010-01-01T00:09:44Z</time>
      </trkpt>
      <trkpt lat="48.9113" lon="7.07781">
        <ele>229</ele>
        <time>2010-01-01T00:10:14Z</time>
      </trkpt>
      <trkpt lat="48.91117" lon="7.07753">
        <ele>228</ele>
        <time>2010-01-01T00:10:23Z</time>
      </trkpt>
      <trkpt lat="48.91096" lon="7.07734">
        <ele>226</ele>
        <time>2010-01-01T00:10:33Z</time>
      </trkpt>
      <trkpt lat="48.91051" lon="7.07656">
        <ele>226</ele>
        <time>2010-01-01T00:11:00Z</time>
      </trkpt>
      <trkpt lat="48.91045" lon="7.07609">
        <ele>227</ele>
        <time>2010-01-01T00:11:13Z</time>
      </trkpt>
      <trkpt lat="48.91013" lon="7.07613">
        <ele>224</ele>
        <time>2010-01-01T00:11:25Z</time>
      </trkpt>
      <trkpt lat="48.90935" lon="7.07677">
        <ele>221</ele>
        <time>2010-01-01T00:12:01Z</time>
      </trkpt>
      <trkpt lat="48.90827" lon="7.07726">
        <ele>223</ele>
        <time>2010-01-01T00:12:46Z</time>
      </trkpt>
      <trkpt lat="48.90824" lon="7.0769">
        <ele>222</ele>
        <time>2010-01-01T00:12:55Z</time>
      </trkpt>
      <trkpt lat="48.90784" lon="7.07558">
        <ele>222</ele>
        <time>2010-01-01T00:13:34Z</time>
      </trkpt>
      <trkpt lat="48.90706" lon="7.07386">
        <ele>222</ele>
        <time>2010-01-01T00:14:29Z</time>
      </trkpt>
      <trkpt lat="48.9063" lon="7.07283">
        <ele>223</ele>
        <time>2010-01-01T00:15:09Z</time>
      </trkpt>
      <trkpt lat="48.90581" lon="7.07239">
        <ele>223</ele>
        <time>2010-01-01T00:15:32Z</time>
      </trkpt>
      <trkpt lat="48.90499" lon="7.07184">
        <ele>225</ele>
        <time>2010-01-01T00:16:08Z</time>
      </trkpt>
      <trkpt lat="48.90422" lon="7.0716">
        <ele>226</ele>
        <time>2010-01-01T00:16:40Z</time>
      </trkpt>
      <trkpt lat="48.9034" lon="7.07115">
        <ele>228</ele>
        <time>2010-01-01T00:17:14Z</time>
      </trkpt>
      <trkpt lat="48.90306" lon="7.07112">
        <ele>229</ele>
        <time>2010-01-01T00:17:28Z</time>
      </trkpt>
      <trkpt lat="48.90244" lon="7.07132">
        <ele>230</ele>
        <time>2010-01-01T00:17:53Z</time>
      </trkpt>
      <trkpt lat="48.90116" lon="7.07151">
        <ele>231</ele>
        <time>2010-01-01T00:18:45Z</time>
      </trkpt>
      <trkpt lat="48.90107" lon="7.07193">
        <ele>231</ele>
        <time>2010-01-01T00:18:57Z</time>
      </trkpt>
      <trkpt lat="48.90108" lon="7.07235">
        <ele>231</ele>
        <time>2010-01-01T00:19:08Z</time>
      </trkpt>
      <trkpt lat="48.9012" lon="7.07307">
        <ele>232</ele>
        <time>2010-01-01T00:19:27Z</time>
      </trkpt>
      <trkpt lat="48.90138" lon="7.07641">
        <ele>249</ele>
        <time>2010-01-01T00:20:55Z</time>
      </trkpt>
      <trkpt lat="48.90182" lon="7.07821">
        <ele>261</ele>
        <time>2010-01-01T00:21:46Z</time>
      </trkpt>
      <trkpt lat="48.90223" lon="7.07915">
        <ele>264</ele>
        <time>2010-01-01T00:22:16Z</time>
      </trkpt>
      <trkpt lat="48.90261" lon="7.08084">
        <ele>274</ele>
        <time>2010-01-01T00:23:03Z</time>
      </trkpt>
      <trkpt lat="48.90303" lon="7.08212">
        <ele>278</ele>
        <time>2010-01-01T00:23:40Z</time>
      </trkpt>
      <trkpt lat="48.90327" lon="7.08345">
        <ele>285</ele>
        <time>2010-01-01T00:24:17Z</time>
      </trkpt>
      <trkpt lat="48.90296" lon="7.08576">
        <ele>303</ele>
        <time>2010-01-01T00:25:19Z</time>
      </trkpt>
      <trkpt lat="48.90291" lon="7.08733">
        <ele>310</ele>
        <time>2010-01-01T00:26:00Z</time>
      </trkpt>
      <trkpt lat="48.90267" lon="7.08929">
        <ele>315</ele>
        <time>2010-01-01T00:26:53Z</time>
      </trkpt>
      <trkpt lat="48.9035" lon="7.09019">
        <ele>318</ele>
        <time>2010-01-01T00:27:33Z</time>
      </trkpt>
      <trkpt lat="48.90358" lon="7.09014">
        <ele>317</ele>
        <time>2010-01-01T00:27:37Z</time>
      </trkpt>
      <trkpt lat="48.90396" lon="7.09044">
        <ele>319</ele>
        <time>2010-01-01T00:27:54Z</time>
      </trkpt>
      <trkpt lat="48.90437" lon="7.09093">
        <ele>317</ele>
        <time>2010-01-01T00:28:15Z</time>
      </trkpt>
      <trkpt lat="48.90419" lon="7.09134">
        <ele>324</ele>
        <time>2010-01-01T00:28:28Z</time>
      </trkpt>
      <trkpt lat="48.90398" lon="7.09173">
        <ele>326</ele>
        <time>2010-01-01T00:28:41Z</time>
      </trkpt>
      <trkpt lat="48.90254" lon="7.09436">
        <ele>323</ele>
        <time>2010-01-01T00:30:11Z</time>
      </trkpt>
      <trkpt lat="48.90053" lon="7.0978">
        <ele>309</ele>
        <time>2010-01-01T00:32:12Z</time>
      </trkpt>
      <trkpt lat="48.90052" lon="7.09794">
        <ele>308</ele>
        <time>2010-01-01T00:32:16Z</time>
      </trkpt>
      <trkpt lat="48.90069" lon="7.0982">
        <ele>308</ele>
        <time>2010-01-01T00:32:26Z</time>
      </trkpt>
      <trkpt lat="48.90068" lon="7.09856">
        <ele>307</ele>
        <time>2010-01-01T00:32:35Z</time>
      </trkpt>
      <trkpt lat="48.89954" lon="7.10062">
        <ele>292</ele>
        <time>2010-01-01T00:33:46Z</time>
      </trkpt>
      <trkpt lat="48.89927" lon="7.1017">
        <ele>287</ele>
        <time>2010-01-01T00:34:17Z</time>
      </trkpt>
      <trkpt lat="48.89928" lon="7.10237">
        <ele>282</ele>
        <time>2010-01-01T00:34:34Z</time>
      </trkpt>
      <trkpt lat="48.89952" lon="7.10332">
        <ele>279</ele>
        <time>2010-01-01T00:35:01Z</time>
      </trkpt>
      <trkpt lat="48.90008" lon="7.10441">
        <ele>275</ele>
        <time>2010-01-01T00:35:37Z</time>
      </trkpt>
      <trkpt lat="48.90017" lon="7.10507">
        <ele>270</ele>
        <time>2010-01-01T00:35:55Z</time>
      </trkpt>
      <trkpt lat="48.90038" lon="7.10538">
        <ele>271</ele>
        <time>2010-01-01T00:36:07Z</time>
      </trkpt>
      <trkpt lat="48.90139" lon="7.10783">
        <ele>266</ele>
        <time>2010-01-01T00:37:23Z</time>
      </trkpt>
      <trkpt lat="48.90169" lon="7.10947">
        <ele>275</ele>
        <time>2010-01-01T00:38:08Z</time>
      </trkpt>
      <trkpt lat="48.90141" lon="7.11076">
        <ele>272</ele>
        <time>2010-01-01T00:38:44Z</time>
      </trkpt>
      <trkpt lat="48.90139" lon="7.1115">
        <ele>270</ele>
        <time>2010-01-01T00:39:03Z</time>
      </trkpt>
      <trkpt lat="48.90094" lon="7.11149">
        <ele>268</ele>
        <time>2010-01-01T00:39:21Z</time>
      </trkpt>
      <trkpt lat="48.90032" lon="7.11165">
        <ele>268</ele>
        <time>2010-01-01T00:39:46Z</time>
      </trkpt>
      <trkpt lat="48.89955" lon="7.11014">
        <ele>273</ele>
        <time>2010-01-01T00:40:37Z</time>
      </trkpt>
      <trkpt lat="48.89889" lon="7.1099">
        <ele>281</ele>
        <time>2010-01-01T00:41:04Z</time>
      </trkpt>
      <trkpt lat="48.89861" lon="7.11031">
        <ele>286</ele>
        <time>2010-01-01T00:41:20Z</time>
      </trkpt>
      <trkpt lat="48.89852" lon="7.11031">
        <ele>288</ele>
        <time>2010-01-01T00:41:23Z</time>
      </trkpt>
      <trkpt lat="48.89837" lon="7.1101">
        <ele>292</ele>
        <time>2010-01-01T00:41:31Z</time>
      </trkpt>
      <trkpt lat="48.89817" lon="7.10945">
        <ele>293</ele>
        <time>2010-01-01T00:41:50Z</time>
      </trkpt>
      <trkpt lat="48.89794" lon="7.10912">
        <ele>294</ele>
        <time>2010-01-01T00:42:03Z</time>
      </trkpt>
      <trkpt lat="48.89753" lon="7.10894">
        <ele>295</ele>
        <time>2010-01-01T00:42:20Z</time>
      </trkpt>
      <trkpt lat="48.89654" lon="7.10875">
        <ele>299</ele>
        <time>2010-01-01T00:43:00Z</time>
      </trkpt>
      <trkpt lat="48.89493" lon="7.10906">
        <ele>304</ele>
        <time>2010-01-01T00:44:05Z</time>
      </trkpt>
      <trkpt lat="48.89353" lon="7.10895">
        <ele>303</ele>
        <time>2010-01-01T00:45:01Z</time>
      </trkpt>
      <trkpt lat="48.89204" lon="7.10933">
        <ele>306</ele>
        <time>2010-01-01T00:46:01Z</time>
      </trkpt>
      <trkpt lat="48.89009" lon="7.11031">
        <ele>311</ele>
        <time>2010-01-01T00:47:23Z</time>
      </trkpt>
      <trkpt lat="48.88907" lon="7.11102">
        <ele>314</ele>
        <time>2010-01-01T00:48:08Z</time>
      </trkpt>
      <trkpt lat="48.88757" lon="7.11172">
        <ele>312</ele>
        <time>2010-01-01T00:49:11Z</time>
      </trkpt>
      <trkpt lat="48.88685" lon="7.11175">
        <ele>313</ele>
        <time>2010-01-01T00:49:40Z</time>
      </trkpt>
      <trkpt lat="48.88687" lon="7.11188">
        <ele>314</ele>
        <time>2010-01-01T00:49:44Z</time>
      </trkpt>
      <trkpt lat="48.88657" lon="7.11294">
        <ele>327</ele>
        <time>2010-01-01T00:50:14Z</time>
      </trkpt>
      <trkpt lat="48.88624" lon="7.11508">
        <ele>331</ele>
        <time>2010-01-01T00:51:12Z</time>
      </trkpt>
      <trkpt lat="48.88637" lon="7.11581">
        <ele>336</ele>
        <time>2010-01-01T00:51:32Z</time>
      </trkpt>
      <trkpt lat="48.88683" lon="7.11735">
        <ele>339</ele>
        <time>2010-01-01T00:52:16Z</time>
      </trkpt>
      <trkpt lat="48.88706" lon="7.11771">
        <ele>341</ele>
        <time>2010-01-01T00:52:30Z</time>
      </trkpt>
      <trkpt lat="48.88751" lon="7.11883">
        <ele>342</ele>
        <time>2010-01-01T00:53:04Z</time>
      </trkpt>
      <trkpt lat="48.88759" lon="7.11925">
        <ele>343</ele>
        <time>2010-01-01T00:53:15Z</time>
      </trkpt>
      <trkpt lat="48.88839" lon="7.12094">
        <ele>334</ele>
        <time>2010-01-01T00:54:10Z</time>
      </trkpt>
      <trkpt lat="48.88872" lon="7.12217">
        <ele>322</ele>
        <time>2010-01-01T00:54:45Z</time>
      </trkpt>
      <trkpt lat="48.8886" lon="7.12233">
        <ele>323</ele>
        <time>2010-01-01T00:54:52Z</time>
      </trkpt>
      <trkpt lat="48.88768" lon="7.12207">
        <ele>333</ele>
        <time>2010-01-01T00:55:29Z</time>
      </trkpt>
      <trkpt lat="48.88756" lon="7.12213">
        <ele>333</ele>
        <time>2010-01-01T00:55:35Z</time>
      </trkpt>
      <trkpt lat="48.88743" lon="7.12231">
        <ele>332</ele>
        <time>2010-01-01T00:55:41Z</time>
      </trkpt>
      <trkpt lat="48.88716" lon="7.12334">
        <ele>337</ele>
        <time>2010-01-01T00:56:11Z</time>
      </trkpt>
      <trkpt lat="48.88532" lon="7.12466">
        <ele>352</ele>
        <time>2010-01-01T00:57:32Z</time>
      </trkpt>
      <trkpt lat="48.88482" lon="7.12511">
        <ele>355</ele>
        <time>2010-01-01T00:57:55Z</time>
      </trkpt>
      <trkpt lat="48.88477" lon="7.12538">
        <ele>355</ele>
        <time>2010-01-01T00:58:03Z</time>
      </trkpt>
      <trkpt lat="48.88513" lon="7.12662">
        <ele>356</ele>
        <time>2010-01-01T00:58:38Z</time>
      </trkpt>
      <trkpt lat="48.88531" lon="7.12692">
        <ele>355</ele>
        <time>2010-01-01T00:58:49Z</time>
      </trkpt>
      <trkpt lat="48.88535" lon="7.12719">
        <ele>355</ele>
        <time>2010-01-01T00:58:56Z</time>
      </trkpt>
      <trkpt lat="48.88565" lon="7.12788">
        <ele>354</ele>
        <time>2010-01-01T00:59:18Z</time>
      </trkpt>
      <trkpt lat="48.88757" lon="7.13349">
        <ele>358</ele>
        <time>2010-01-01T01:02:04Z</time>
      </trkpt>
      <trkpt lat="48.88775" lon="7.13356">
        <ele>356</ele>
        <time>2010-01-01T01:02:12Z</time>
      </trkpt>
      <trkpt lat="48.88957" lon="7.13321">
        <ele>353</ele>
        <time>2010-01-01T01:03:25Z</time>
      </trkpt>
      <trkpt lat="48.88968" lon="7.13329">
        <ele>353</ele>
        <time>2010-01-01T01:03:30Z</time>
      </trkpt>
      <trkpt lat="48.88963" lon="7.13387">
        <ele>351</ele>
        <time>2010-01-01T01:03:45Z</time>
      </trkpt>
      <trkpt lat="48.88897" lon="7.1353">
        <ele>350</ele>
        <time>2010-01-01T01:04:31Z</time>
      </trkpt>
      <trkpt lat="48.89011" lon="7.13754">
        <ele>338</ele>
        <time>2010-01-01T01:05:46Z</time>
      </trkpt>
      <trkpt lat="48.89029" lon="7.13761">
        <ele>336</ele>
        <time>2010-01-01T01:05:53Z</time>
      </trkpt>
      <trkpt lat="48.89093" lon="7.13666">
        <ele>336</ele>
        <time>2010-01-01T01:06:29Z</time>
      </trkpt>
      <trkpt lat="48.8926" lon="7.13499">
        <ele>343</ele>
        <time>2010-01-01T01:07:49Z</time>
      </trkpt>
      <trkpt lat="48.89343" lon="7.13388">
        <ele>347</ele>
        <time>2010-01-01T01:08:33Z</time>
      </trkpt>
      <trkpt lat="48.89351" lon="7.13392">
        <ele>347</ele>
        <time>2010-01-01T01:08:37Z</time>
      </trkpt>
      <trkpt lat="48.89544" lon="7.13644">
        <ele>342</ele>
        <time>2010-01-01T01:10:18Z</time>
      </trkpt>
      <trkpt lat="48.89666" lon="7.13765">
        <ele>346</ele>
        <time>2010-01-01T01:11:17Z</time>
      </trkpt>
      <trkpt lat="48.89805" lon="7.13934">
        <ele>348</ele>
        <time>2010-01-01T01:12:28Z</time>
      </trkpt>
      <trkpt lat="48.89872" lon="7.14112">
        <ele>345</ele>
        <time>2010-01-01T01:13:22Z</time>
      </trkpt>
      <trkpt lat="48.8989" lon="7.14203">
        <ele>344</ele>
        <time>2010-01-01T01:13:47Z</time>
      </trkpt>
      <trkpt lat="48.8995" lon="7.1432">
        <ele>345</ele>
        <time>2010-01-01T01:14:26Z</time>
      </trkpt>
      <trkpt lat="48.89983" lon="7.14407">
        <ele>344</ele>
        <time>2010-01-01T01:14:53Z</time>
      </trkpt>
      <trkpt lat="48.89992" lon="7.14453">
        <ele>343</ele>
        <time>2010-01-01T01:15:05Z</time>
      </trkpt>
      <trkpt lat="48.90006" lon="7.14556">
        <ele>336</ele>
        <time>2010-01-01T01:15:33Z</time>
      </trkpt>
      <trkpt lat="48.90029" lon="7.14576">
        <ele>334</ele>
        <time>2010-01-01T01:15:44Z</time>
      </trkpt>
      <trkpt lat="48.90027" lon="7.14518">
        <ele>337</ele>
        <time>2010-01-01T01:15:59Z</time>
      </trkpt>
      <trkpt lat="48.89965" lon="7.14343">
        <ele>345</ele>
        <time>2010-01-01T01:16:51Z</time>
      </trkpt>
      <trkpt lat="48.89892" lon="7.14187">
        <ele>345</ele>
        <time>2010-01-01T01:17:42Z</time>
      </trkpt>
      <trkpt lat="48.89873" lon="7.14102">
        <ele>345</ele>
        <time>2010-01-01T01:18:05Z</time>
      </trkpt>
      <trkpt lat="48.89814" lon="7.13933">
        <ele>348</ele>
        <time>2010-01-01T01:18:56Z</time>
      </trkpt>
      <trkpt lat="48.89692" lon="7.13766">
        <ele>348</ele>
        <time>2010-01-01T01:20:01Z</time>
      </trkpt>
      <trkpt lat="48.8962" lon="7.13717">
        <ele>345</ele>
        <time>2010-01-01T01:20:33Z</time>
      </trkpt>
      <trkpt lat="48.89608" lon="7.13685">
        <ele>346</ele>
        <time>2010-01-01T01:20:42Z</time>
      </trkpt>
      <trkpt lat="48.89545" lon="7.13641">
        <ele>342</ele>
        <time>2010-01-01T01:21:10Z</time>
      </trkpt>
      <trkpt lat="48.89382" lon="7.13427">
        <ele>346</ele>
        <time>2010-01-01T01:22:36Z</time>
      </trkpt>
      <trkpt lat="48.8936" lon="7.1337">
        <ele>347</ele>
        <time>2010-01-01T01:22:54Z</time>
      </trkpt>
      <trkpt lat="48.89314" lon="7.13302">
        <ele>347</ele>
        <time>2010-01-01T01:23:19Z</time>
      </trkpt>
      <trkpt lat="48.89278" lon="7.13272">
        <ele>347</ele>
        <time>2010-01-01T01:23:36Z</time>
      </trkpt>
      <trkpt lat="48.89251" lon="7.1321">
        <ele>347</ele>
        <time>2010-01-01T01:23:55Z</time>
      </trkpt>
      <trkpt lat="48.89203" lon="7.13141">
        <ele>345</ele>
        <time>2010-01-01T01:24:22Z</time>
      </trkpt>
      <trkpt lat="48.89111" lon="7.12889">
        <ele>335</ele>
        <time>2010-01-01T01:25:38Z</time>
      </trkpt>
      <trkpt lat="48.88972" lon="7.12414">
        <ele>327</ele>
        <time>2010-01-01T01:27:54Z</time>
      </trkpt>
      <trkpt lat="48.8887" lon="7.12362">
        <ele>325</ele>
        <time>2010-01-01T01:28:37Z</time>
      </trkpt>
      <trkpt lat="48.88852" lon="7.12361">
        <ele>324</ele>
        <time>2010-01-01T01:28:45Z</time>
      </trkpt>
      <trkpt lat="48.88775" lon="7.12306">
        <ele>329</ele>
        <time>2010-01-01T01:29:19Z</time>
      </trkpt>
      <trkpt lat="48.88744" lon="7.12277">
        <ele>330</ele>
        <time>2010-01-01T01:29:34Z</time>
      </trkpt>
      <trkpt lat="48.8874" lon="7.12233">
        <ele>333</ele>
        <time>2010-01-01T01:29:45Z</time>
      </trkpt>
      <trkpt lat="48.88765" lon="7.1221">
        <ele>333</ele>
        <time>2010-01-01T01:29:57Z</time>
      </trkpt>
      <trkpt lat="48.88853" lon="7.12233">
        <ele>324</ele>
        <time>2010-01-01T01:30:33Z</time>
      </trkpt>
      <trkpt lat="48.88969" lon="7.1209">
        <ele>326</ele>
        <time>2010-01-01T01:31:32Z</time>
      </trkpt>
      <trkpt lat="48.89006" lon="7.12072">
        <ele>325</ele>
        <time>2010-01-01T01:31:48Z</time>
      </trkpt>
      <trkpt lat="48.89153" lon="7.12095">
        <ele>321</ele>
        <time>2010-01-01T01:32:47Z</time>
      </trkpt>
      <trkpt lat="48.89241" lon="7.12097">
        <ele>317</ele>
        <time>2010-01-01T01:33:23Z</time>
      </trkpt>
      <trkpt lat="48.89274" lon="7.12087">
        <ele>320</ele>
        <time>2010-01-01T01:33:36Z</time>
      </trkpt>
      <trkpt lat="48.89379" lon="7.11951">
        <ele>327</ele>
        <time>2010-01-01T01:34:31Z</time>
      </trkpt>
      <trkpt lat="48.89503" lon="7.11822">
        <ele>312</ele>
        <time>2010-01-01T01:35:31Z</time>
      </trkpt>
      <trkpt lat="48.89505" lon="7.11809">
        <ele>311</ele>
        <time>2010-01-01T01:35:34Z</time>
      </trkpt>
      <trkpt lat="48.89496" lon="7.11808">
        <ele>313</ele>
        <time>2010-01-01T01:35:38Z</time>
      </trkpt>
      <trkpt lat="48.89649" lon="7.11692">
        <ele>298</ele>
        <time>2010-01-01T01:36:47Z</time>
      </trkpt>
      <trkpt lat="48.89694" lon="7.1167">
        <ele>293</ele>
        <time>2010-01-01T01:37:05Z</time>
      </trkpt>
      <trkpt lat="48.89737" lon="7.11624">
        <ele>285</ele>
        <time>2010-01-01T01:37:27Z</time>
      </trkpt>
      <trkpt lat="48.89787" lon="7.11505">
        <ele>284</ele>
        <time>2010-01-01T01:38:04Z</time>
      </trkpt>
      <trkpt lat="48.89884" lon="7.11323">
        <ele>279</ele>
        <time>2010-01-01T01:39:06Z</time>
      </trkpt>
      <trkpt lat="48.89969" lon="7.11195">
        <ele>273</ele>
        <time>2010-01-01T01:39:53Z</time>
      </trkpt>
      <trkpt lat="48.90007" lon="7.11161">
        <ele>270</ele>
        <time>2010-01-01T01:40:11Z</time>
      </trkpt>
      <trkpt lat="48.90124" lon="7.11155">
        <ele>269</ele>
        <time>2010-01-01T01:40:58Z</time>
      </trkpt>
      <trkpt lat="48.90135" lon="7.1118">
        <ele>270</ele>
        <time>2010-01-01T01:41:06Z</time>
      </trkpt>
      <trkpt lat="48.90145" lon="7.11269">
        <ele>270</ele>
        <time>2010-01-01T01:41:29Z</time>
      </trkpt>
      <trkpt lat="48.90183" lon="7.11332">
        <ele>275</ele>
        <time>2010-01-01T01:41:52Z</time>
      </trkpt>
      <trkpt lat="48.90198" lon="7.11343">
        <ele>276</ele>
        <time>2010-01-01T01:41:58Z</time>
      </trkpt>
      <trkpt lat="48.90253" lon="7.11349">
        <ele>277</ele>
        <time>2010-01-01T01:42:20Z</time>
      </trkpt>
      <trkpt lat="48.90312" lon="7.11344">
        <ele>284</ele>
        <time>2010-01-01T01:42:44Z</time>
      </trkpt>
      <trkpt lat="48.90422" lon="7.11305">
        <ele>297</ele>
        <time>2010-01-01T01:43:29Z</time>
      </trkpt>
      <trkpt lat="48.90473" lon="7.11298">
        <ele>303</ele>
        <time>2010-01-01T01:43:50Z</time>
      </trkpt>
      <trkpt lat="48.90586" lon="7.11236">
        <ele>319</ele>
        <time>2010-01-01T01:44:38Z</time>
      </trkpt>
      <trkpt lat="48.90703" lon="7.11189">
        <ele>323</ele>
        <time>2010-01-01T01:45:26Z</time>
      </trkpt>
      <trkpt lat="48.90756" lon="7.11184">
        <ele>328</ele>
        <time>2010-01-01T01:45:47Z</time>
      </trkpt>
      <trkpt lat="48.90778" lon="7.11167">
        <ele>330</ele>
        <time>2010-01-01T01:45:58Z</time>
      </trkpt>
      <trkpt lat="48.90886" lon="7.11193">
        <ele>331</ele>
        <time>2010-01-01T01:46:41Z</time>
      </trkpt>
      <trkpt lat="48.90979" lon="7.11171">
        <ele>336</ele>
        <time>2010-01-01T01:47:19Z</time>
      </trkpt>
      <trkpt lat="48.91313" lon="7.11146">
        <ele>343</ele>
        <time>2010-01-01T01:49:33Z</time>
      </trkpt>
      <trkpt lat="48.91385" lon="7.11131">
        <ele>340</ele>
        <time>2010-01-01T01:50:02Z</time>
      </trkpt>
      <trkpt lat="48.91493" lon="7.11078">
        <ele>334</ele>
        <time>2010-01-01T01:50:47Z</time>
      </trkpt>
      <trkpt lat="48.91543" lon="7.11068">
        <ele>331</ele>
        <time>2010-01-01T01:51:08Z</time>
      </trkpt>
      <trkpt lat="48.91594" lon="7.11075">
        <ele>330</ele>
        <time>2010-01-01T01:51:28Z</time>
      </trkpt>
      <trkpt lat="48.91637" lon="7.11051">
        <ele>329</ele>
        <time>2010-01-01T01:51:46Z</time>
      </trkpt>
      <trkpt lat="48.91704" lon="7.10951">
        <ele>329</ele>
        <time>2010-01-01T01:52:24Z</time>
      </trkpt>
      <trkpt lat="48.91727" lon="7.10896">
        <ele>330</ele>
        <time>2010-01-01T01:52:41Z</time>
      </trkpt>
      <trkpt lat="48.91741" lon="7.10792">
        <ele>329</ele>
        <time>2010-01-01T01:53:09Z</time>
      </trkpt>
      <trkpt lat="48.9177" lon="7.10679">
        <ele>328</ele>
        <time>2010-01-01T01:53:41Z</time>
      </trkpt>
      <trkpt lat="48.91772" lon="7.10439">
        <ele>328</ele>
        <time>2010-01-01T01:54:44Z</time>
      </trkpt>
      <trkpt lat="48.91794" lon="7.10238">
        <ele>323</ele>
        <time>2010-01-01T01:55:37Z</time>
      </trkpt>
      <trkpt lat="48.91812" lon="7.10144">
        <ele>317</ele>
        <time>2010-01-01T01:56:03Z</time>
      </trkpt>
      <trkpt lat="48.91841" lon="7.1006">
        <ele>315</ele>
        <time>2010-01-01T01:56:28Z</time>
      </trkpt>
      <trkpt lat="48.91904" lon="7.09932">
        <ele>311</ele>
        <time>2010-01-01T01:57:10Z</time>
      </trkpt>
      <trkpt lat="48.91995" lon="7.09652">
        <ele>298</ele>
        <time>2010-01-01T01:58:32Z</time>
      </trkpt>
      <trkpt lat="48.92045" lon="7.09351">
        <ele>280</ele>
        <time>2010-01-01T01:59:54Z</time>
      </trkpt>
      <trkpt lat="48.92115" lon="7.09087">
        <ele>262</ele>
        <time>2010-01-01T02:01:09Z</time>
      </trkpt>
      <trkpt lat="48.92127" lon="7.08975">
        <ele>256</ele>
        <time>2010-01-01T02:01:39Z</time>
      </trkpt>
      <trkpt lat="48.92123" lon="7.0884">
        <ele>252</ele>
        <time>2010-01-01T02:02:14Z</time>
      </trkpt>
      <trkpt lat="48.92109" lon="7.08796">
        <ele>248</ele>
        <time>2010-01-01T02:02:27Z</time>
      </trkpt>
      <trkpt lat="48.92074" lon="7.08754">
        <ele>248</ele>
        <time>2010-01-01T02:02:45Z</time>
      </trkpt>
      <trkpt lat="48.92071" lon="7.08706">
        <ele>244</ele>
        <time>2010-01-01T02:02:58Z</time>
      </trkpt>
      <trkpt lat="48.92056" lon="7.08716">
        <ele>246</ele>
        <time>2010-01-01T02:03:04Z</time>
      </trkpt>
      <trkpt lat="48.92044" lon="7.08766">
        <ele>249</ele>
        <time>2010-01-01T02:03:18Z</time>
      </trkpt>
      <trkpt lat="48.92049" lon="7.08776">
        <ele>249</ele>
        <time>2010-01-01T02:03:21Z</time>
      </trkpt>
      <trkpt lat="48.92055" lon="7.08699">
        <ele>244</ele>
        <time>2010-01-01T02:03:42Z</time>
      </trkpt>
      <trkpt lat="48.92076" lon="7.08679">
        <ele>242</ele>
        <time>2010-01-01T02:03:52Z</time>
      </trkpt>
      <trkpt lat="48.92092" lon="7.0854">
        <ele>232</ele>
        <time>2010-01-01T02:04:29Z</time>
      </trkpt>
      <trkpt lat="48.92131" lon="7.08515">
        <ele>231</ele>
        <time>2010-01-01T02:04:46Z</time>
      </trkpt>
      <trkpt lat="48.9222" lon="7.08361">
        <ele>226</ele>
        <time>2010-01-01T02:05:40Z</time>
      </trkpt>
      <trkpt lat="48.92231" lon="7.08323">
        <ele>226</ele>
        <time>2010-01-01T02:05:51Z</time>
      </trkpt>
      <trkpt lat="48.92283" lon="7.0823">
        <ele>224</ele>
        <time>2010-01-01T02:06:23Z</time>
      </trkpt>
      <trkpt lat="48.92301" lon="7.08256">
        <ele>226</ele>
        <time>2010-01-01T02:06:33Z</time>
      </trkpt>
      <trkpt lat="48.92286" lon="7.08224">
        <ele>224</ele>
        <time>2010-01-01T02:06:43Z</time>
      </trkpt>
      <trkpt lat="48.92311" lon="7.0821">
        <ele>224</ele>
        <time>2010-01-01T02:06:54Z</time>
      </trkpt>
      <trkpt lat="48.92329" lon="7.08222">
        <ele>224</ele>
        <time>2010-01-01T02:07:02Z</time>
      </trkpt>
      <trkpt lat="48.92357" lon="7.0821">
        <ele>224</ele>
        <time>2010-01-01T02:07:13Z</time>
      </trkpt>
      <trkpt lat="48.92383" lon="7.08203">
        <ele>224</ele>
        <time>2010-01-01T02:07:24Z</time>
      </trkpt>
      <trkpt lat="48.92405" lon="7.08205">
        <ele>224</ele>
        <time>2010-01-01T02:07:33Z</time>
      </trkpt>
      <trkpt lat="48.92425" lon="7.08208">
        <ele>225</ele>
        <time>2010-01-01T02:07:41Z</time>
      </trkpt>
      <trkpt lat="48.9243" lon="7.08195">
        <ele>225</ele>
        <time>2010-01-01T02:07:45Z</time>
      </trkpt>
    </trkseg>
  </trk>
</gpx>